Time;durP1;ratioP1;P1;durP2;ratioP2;P2;SDS_P1;SDS_P2;PMS_P1;PMS_P2;Temp;Humidity;BMP_temperature;BMP_pressure;BME280_temperature;BME280_humidity;BME280_pressure;Samples;Min_cycle;Max_cycle;Signal;HPM_P1;HPM_P2
2022/06/09 00:00:54;;;;;;;;;;;;;;;;;;5059006;28;19975;-78
2022/06/09 00:03:26;;;;;;;;;;;;;;;;;;5059010;28;20322;-78
2022/06/09 00:05:52;;;;;;;;;;;;;;;;;;5061207;28;19921;-78
2022/06/09 00:08:19;;;;;;;;;;;;;;;;;;5054384;28;19975;-77
2022/06/09 00:10:50;;;;;;;;;;;;;;;;;;5043212;28;19960;-78
2022/06/09 00:13:18;;;;;;;;;;;;;;;;;;5042583;28;19928;-77
2022/06/09 00:15:45;;;;;;;;;;;;;;;;;;5041223;28;19928;-77
2022/06/09 00:18:11;;;;;;;;;;;;;;;;;;5038041;28;19925;-78
2022/06/09 00:20:37;;;;;;;;;;;;;;;;;;5036262;28;20554;-77
2022/06/09 00:23:04;;;;;;;;;;;;;;;;;;5036865;28;20430;-77
2022/06/09 00:25:31;;;;;;;;;;;;;;;;;;5037170;28;19952;-77
2022/06/09 00:27:57;;;;;;;;;;;;;;;;;;5037162;28;19927;-77
2022/06/09 00:30:25;;;;;;;;;;;;;;;;;;5036720;28;20356;-77
2022/06/09 00:32:52;;;;;;;;;;;;;;;;;;5035706;28;20438;-76
2022/06/09 00:35:19;;;;;;;;;;;;;;;;;;5033356;28;19928;-76
2022/06/09 00:37:45;;;;;;;;;;;;;;;;;;5033512;28;20007;-77
2022/06/09 00:40:13;;;;;;;;;;;;;;;;;;5033140;28;19983;-78
2022/06/09 00:42:39;;;;;;;;;;;;;;;;;;5033197;28;20008;-76
2022/06/09 00:45:22;;;;;;;;;;;;;;;;;;5033160;28;20419;-77
2022/06/09 00:47:50;;;;;;;;;;;;;;;;;;5033166;28;19947;-76
2022/06/09 00:50:18;;;;;;;;;;;;;;;;;;5033079;28;20356;-76
2022/06/09 00:52:47;;;;;;;;;;;;;;;;;;5032743;28;20405;-77
2022/06/09 00:55:16;;;;;;;;;;;;;;;;;;5033959;28;19975;-77
2022/06/09 00:57:45;;;;;;;;;;;;;;;;;;5032986;28;20401;-77
2022/06/09 01:00:14;;;;;;;;;;;;;;;;;;5033136;28;20364;-76
2022/06/09 01:02:42;;;;;;;;;;;;;;;;;;5033164;28;19921;-76
2022/06/09 01:05:10;;;;;;;;;;;;;;;;;;5032987;28;19921;-77
2022/06/09 01:07:38;;;;;;;;;;;;;;;;;;5033063;28;19921;-77
2022/06/09 01:10:06;;;;;;;;;;;;;;;;;;5033865;28;19921;-77
2022/06/09 01:12:34;;;;;;;;;;;;;;;;;;5033643;28;20007;-77
2022/06/09 01:15:02;;;;;;;;;;;;;;;;;;5033853;28;19921;-77
2022/06/09 01:17:34;;;;;;;;;;;;;;;;;;5033511;28;19944;-77
2022/06/09 01:20:13;;;;;;;;;;;;;;;;;;5032530;28;20023;-77
2022/06/09 01:22:55;;;;;;;;;;;;;;;;;;5032750;28;20344;-76
2022/06/09 01:25:40;;;;;;;;;;;;;;;;;;5023035;28;20471;-78
2022/06/09 01:28:25;;;;;;;;;;;;;;;;;;5034192;28;19921;-77
2022/06/09 01:30:55;;;;;;;;;;;;;;;;;;5033573;28;19921;-77
2022/06/09 01:33:27;;;;;;;;;;;;;;;;;;5034133;28;19971;-78
2022/06/09 01:35:56;;;;;;;;;;;;;;;;;;5034315;28;19921;-78
2022/06/09 01:38:22;;;;;;;;;;;;;;;;;;5035844;28;19925;-77
2022/06/09 01:40:49;;;;;;;;;;;;;;;;;;5037687;28;19921;-77
2022/06/09 01:43:15;;;;;;;;;;;;;;;;;;5036077;28;19921;-77
2022/06/09 01:45:45;;;;;;;;;;;;;;;;;;5034752;28;19925;-77
2022/06/09 01:48:14;;;;;;;;;;;;;;;;;;5034319;28;19925;-77
2022/06/09 01:53:45;;;;;;;;;;;;;;;;;;5029471;28;19924;-76
2022/06/09 01:56:16;;;;;;;;;;;;;;;;;;5032191;28;20303;-77
2022/06/09 01:58:44;;;;;;;;;;;;;;;;;;5032051;28;19924;-77
2022/06/09 02:01:11;;;;;;;;;;;;;;;;;;5032222;28;20009;-77
2022/06/09 02:03:41;;;;;;;;;;;;;;;;;;5032385;28;19967;-77
2022/06/09 02:06:08;;;;;;;;;;;;;;;;;;5032301;28;19995;-78
2022/06/09 02:08:35;;;;;;;;;;;;;;;;;;5031901;28;20352;-77
2022/06/09 02:11:05;;;;;;;;;;;;;;;;;;5032136;28;19951;-77
2022/06/09 02:13:34;;;;;;;;;;;;;;;;;;5032303;28;19931;-78
2022/06/09 02:16:03;;;;;;;;;;;;;;;;;;5032462;28;19921;-77
2022/06/09 02:18:30;;;;;;;;;;;;;;;;;;5031947;28;19921;-75
2022/06/09 02:21:00;;;;;;;;;;;;;;;;;;5032157;28;20011;-77
2022/06/09 02:23:28;;;;;;;;;;;;;;;;;;5032369;28;20031;-76
2022/06/09 02:25:54;;;;;;;;;;;;;;;;;;5033148;28;20367;-76
2022/06/09 02:28:21;;;;;;;;;;;;;;;;;;5033582;28;19921;-77
2022/06/09 02:30:47;;;;;;;;;;;;;;;;;;5033327;28;20003;-78
2022/06/09 02:33:14;;;;;;;;;;;;;;;;;;5033176;28;20380;-77
2022/06/09 02:35:41;;;;;;;;;;;;;;;;;;5033554;28;19921;-77
2022/06/09 02:38:09;;;;;;;;;;;;;;;;;;5036579;28;19924;-77
2022/06/09 02:40:36;;;;;;;;;;;;;;;;;;5036949;28;20008;-78
2022/06/09 02:43:02;;;;;;;;;;;;;;;;;;5037229;28;19927;-77
2022/06/09 02:45:29;;;;;;;;;;;;;;;;;;5037399;28;19921;-77
2022/06/09 02:47:55;;;;;;;;;;;;;;;;;;5035739;28;20383;-76
2022/06/09 02:50:22;;;;;;;;;;;;;;;;;;5036334;28;20370;-77
2022/06/09 02:52:48;;;;;;;;;;;;;;;;;;5036486;28;20388;-77
2022/06/09 02:55:16;;;;;;;;;;;;;;;;;;5036272;28;20008;-78
2022/06/09 02:57:42;;;;;;;;;;;;;;;;;;5036910;28;19963;-78
2022/06/09 03:00:10;;;;;;;;;;;;;;;;;;5017695;28;19993;-78
2022/06/09 03:02:38;;;;;;;;;;;;;;;;;;5016853;28;20303;-78
2022/06/09 03:05:04;;;;;;;;;;;;;;;;;;5016551;28;19953;-79
2022/06/09 03:07:31;;;;;;;;;;;;;;;;;;5016329;28;20008;-78
2022/06/09 03:09:57;;;;;;;;;;;;;;;;;;5015629;28;20024;-78
2022/06/09 03:12:25;;;;;;;;;;;;;;;;;;5016172;28;19932;-78
2022/06/09 03:14:51;;;;;;;;;;;;;;;;;;5016259;28;19921;-78
2022/06/09 03:17:18;;;;;;;;;;;;;;;;;;5016328;28;19977;-78
2022/06/09 03:19:44;;;;;;;;;;;;;;;;;;5015429;28;19976;-78
2022/06/09 03:22:11;;;;;;;;;;;;;;;;;;5015099;28;19921;-78
2022/06/09 03:24:37;;;;;;;;;;;;;;;;;;5016109;28;19948;-77
2022/06/09 03:27:04;;;;;;;;;;;;;;;;;;5019920;28;20012;-77
2022/06/09 03:29:32;;;;;;;;;;;;;;;;;;5025312;28;19944;-78
2022/06/09 03:31:59;;;;;;;;;;;;;;;;;;5024952;28;20012;-77
2022/06/09 03:34:25;;;;;;;;;;;;;;;;;;5015732;28;20387;-77
2022/06/09 03:36:52;;;;;;;;;;;;;;;;;;5032006;28;20408;-77
2022/06/09 03:39:18;;;;;;;;;;;;;;;;;;5048388;28;19936;-78
2022/06/09 03:41:45;;;;;;;;;;;;;;;;;;5054741;28;19928;-78
2022/06/09 03:44:11;;;;;;;;;;;;;;;;;;5040095;28;20345;-78
2022/06/09 03:46:39;;;;;;;;;;;;;;;;;;5036296;28;19983;-78
2022/06/09 03:49:05;;;;;;;;;;;;;;;;;;5035314;28;19967;-78
2022/06/09 03:51:33;;;;;;;;;;;;;;;;;;5034783;28;19925;-78
2022/06/09 03:54:00;;;;;;;;;;;;;;;;;;5036391;28;19928;-77
2022/06/09 03:56:26;;;;;;;;;;;;;;;;;;5036247;28;20031;-77
2022/06/09 03:58:53;;;;;;;;;;;;;;;;;;5027703;28;20011;-77
2022/06/09 04:01:19;;;;;;;;;;;;;;;;;;5015019;28;19921;-78
2022/06/09 04:03:48;;;;;;;;;;;;;;;;;;5015221;28;19929;-77
2022/06/09 04:06:15;;;;;;;;;;;;;;;;;;5015334;28;19922;-77
2022/06/09 04:08:41;;;;;;;;;;;;;;;;;;5015745;28;19928;-77
2022/06/09 04:11:09;;;;;;;;;;;;;;;;;;5016575;28;20423;-77
2022/06/09 04:13:36;;;;;;;;;;;;;;;;;;5016570;28;20300;-78
2022/06/09 04:16:04;;;;;;;;;;;;;;;;;;5017361;28;19925;-77
2022/06/09 04:18:30;;;;;;;;;;;;;;;;;;5016592;28;19928;-77
2022/06/09 04:20:58;;;;;;;;;;;;;;;;;;5018435;28;19975;-78
2022/06/09 04:23:27;;;;;;;;;;;;;;;;;;5020030;28;19921;-78
2022/06/09 04:25:53;;;;;;;;;;;;;;;;;;5020049;28;19949;-78
2022/06/09 04:28:19;;;;;;;;;;;;;;;;;;5020694;28;19956;-78
2022/06/09 04:30:47;;;;;;;;;;;;;;;;;;5021731;28;20277;-78
2022/06/09 04:33:13;;;;;;;;;;;;;;;;;;5020502;28;20308;-78
2022/06/09 04:35:40;;;;;;;;;;;;;;;;;;5017317;28;20308;-77
2022/06/09 04:38:09;;;;;;;;;;;;;;;;;;5017488;28;19921;-77
2022/06/09 04:40:37;;;;;;;;;;;;;;;;;;5017600;28;20283;-76
2022/06/09 04:43:04;;;;;;;;;;;;;;;;;;5018627;28;20376;-77
2022/06/09 04:45:31;;;;;;;;;;;;;;;;;;5016916;28;19928;-78
2022/06/09 04:47:57;;;;;;;;;;;;;;;;;;5015729;28;20048;-77
2022/06/09 04:50:24;;;;;;;;;;;;;;;;;;5015773;28;19932;-76
2022/06/09 04:52:51;;;;;;;;;;;;;;;;;;5016198;28;19944;-77
2022/06/09 04:55:19;;;;;;;;;;;;;;;;;;5016302;28;20388;-78
2022/06/09 04:57:46;;;;;;;;;;;;;;;;;;5016278;28;19972;-77
2022/06/09 05:00:14;;;;;;;;;;;;;;;;;;5034553;28;19953;-77
2022/06/09 05:02:40;;;;;;;;;;;;;;;;;;5034670;28;20011;-77
2022/06/09 05:05:07;;;;;;;;;;;;;;;;;;5034199;28;20376;-77
2022/06/09 05:07:34;;;;;;;;;;;;;;;;;;5034575;28;20560;-78
2022/06/09 05:10:00;;;;;;;;;;;;;;;;;;5035885;28;19977;-79
2022/06/09 05:12:28;;;;;;;;;;;;;;;;;;5036414;28;19921;-79
2022/06/09 05:14:54;;;;;;;;;;;;;;;;;;5036464;28;19921;-79
2022/06/09 05:17:21;;;;;;;;;;;;;;;;;;5037772;28;20005;-78
2022/06/09 05:19:47;;;;;;;;;;;;;;;;;;5035319;28;20007;-78
2022/06/09 05:22:14;;;;;;;;;;;;;;;;;;5037546;28;20023;-78
2022/06/09 05:24:41;;;;;;;;;;;;;;;;;;5040694;28;20007;-78
2022/06/09 05:27:07;;;;;;;;;;;;;;;;;;5036474;28;19921;-78
2022/06/09 05:29:35;;;;;;;;;;;;;;;;;;5035423;28;20020;-78
2022/06/09 05:32:03;;;;;;;;;;;;;;;;;;5035418;28;19988;-78
2022/06/09 05:34:30;;;;;;;;;;;;;;;;;;5034414;28;19955;-77
2022/06/09 05:36:56;;;;;;;;;;;;;;;;;;5034745;28;20371;-77
2022/06/09 05:45:09;;;;;;;;;;;;;;;;;;4973970;28;19922;-77
2022/06/09 05:47:35;;;;;;;;;;;;;;;;;;4976947;28;20359;-76
2022/06/09 05:50:02;;;;;;;;;;;;;;;;;;5000224;28;20431;-77
2022/06/09 05:52:29;;;;;;;;;;;;;;;;;;5035212;28;19921;-77
2022/06/09 05:54:57;;;;;;;;;;;;;;;;;;5035567;28;19921;-76
2022/06/09 05:57:24;;;;;;;;;;;;;;;;;;5040462;28;19921;-78
2022/06/09 06:02:19;;;;;;;;;;;;;;;;;;5047548;28;19921;-76
2022/06/09 06:04:46;;;;;;;;;;;;;;;;;;5052687;28;20008;-77
2022/06/09 06:07:13;;;;;;;;;;;;;;;;;;5053269;28;19920;-78
2022/06/09 06:09:39;;;;;;;;;;;;;;;;;;5053945;28;20012;-77
2022/06/09 06:12:06;;;;;;;;;;;;;;;;;;5055905;28;20015;-77
2022/06/09 06:14:33;;;;;;;;;;;;;;;;;;5056475;28;20008;-77
2022/06/09 06:17:00;;;;;;;;;;;;;;;;;;5056722;28;19925;-79
2022/06/09 06:19:28;;;;;;;;;;;;;;;;;;5056287;28;19924;-77
2022/06/09 06:21:55;;;;;;;;;;;;;;;;;;5056909;28;19921;-77
2022/06/09 06:24:23;;;;;;;;;;;;;;;;;;5056384;28;19920;-77
2022/06/09 06:26:50;;;;;;;;;;;;;;;;;;5056588;28;19974;-77
2022/06/09 06:29:18;;;;;;;;;;;;;;;;;;5056656;28;19925;-78
2022/06/09 06:31:45;;;;;;;;;;;;;;;;;;5057909;28;19990;-78
2022/06/09 06:34:11;;;;;;;;;;;;;;;;;;5057916;28;19921;-79
2022/06/09 06:36:39;;;;;;;;;;;;;;;;;;5057558;28;20375;-78
2022/06/09 06:39:06;;;;;;;;;;;;;;;;;;5056330;28;19928;-78
2022/06/09 06:41:32;;;;;;;;;;;;;;;;;;5055470;28;20016;-77
2022/06/09 06:43:59;;;;;;;;;;;;;;;;;;5055923;28;20015;-78
2022/06/09 06:46:25;;;;;;;;;;;;;;;;;;5057369;28;19925;-78
2022/06/09 06:48:53;;;;;;;;;;;;;;;;;;5057848;28;19927;-78
2022/06/09 06:51:19;;;;;;;;;;;;;;;;;;5057019;28;19972;-78
2022/06/09 06:53:47;;;;;;;;;;;;;;;;;;5061739;28;19979;-78
2022/06/09 06:56:13;;;;;;;;;;;;;;;;;;5062969;28;19924;-79
2022/06/09 06:58:40;;;;;;;;;;;;;;;;;;5056910;28;19960;-79
2022/06/09 07:01:07;;;;;;;;;;;;;;;;;;5040657;28;19920;-78
2022/06/09 07:03:34;;;;;;;;;;;;;;;;;;5043605;28;19986;-77
2022/06/09 07:06:01;;;;;;;;;;;;;;;;;;5039447;28;20430;-77
2022/06/09 07:08:27;;;;;;;;;;;;;;;;;;5040135;28;20012;-79
2022/06/09 07:10:56;;;;;;;;;;;;;;;;;;5035129;28;19921;-77
2022/06/09 07:13:22;;;;;;;;;;;;;;;;;;5035274;28;20016;-78
2022/06/09 07:15:49;;;;;;;;;;;;;;;;;;5034557;28;20005;-78
2022/06/09 07:18:15;;;;;;;;;;;;;;;;;;5036309;28;19964;-79
2022/06/09 07:20:42;;;;;;;;;;;;;;;;;;5037777;28;19988;-78
2022/06/09 07:23:09;;;;;;;;;;;;;;;;;;5035495;28;19967;-78
2022/06/09 07:25:36;;;;;;;;;;;;;;;;;;5034026;28;19980;-79
2022/06/09 07:28:04;;;;;;;;;;;;;;;;;;5034005;28;20333;-77
2022/06/09 07:30:31;;;;;;;;;;;;;;;;;;5034782;28;19927;-79
2022/06/09 07:32:57;;;;;;;;;;;;;;;;;;5035700;28;19971;-77
2022/06/09 07:35:25;;;;;;;;;;;;;;;;;;5033596;28;20375;-78
2022/06/09 07:37:52;;;;;;;;;;;;;;;;;;5034093;28;19928;-78
2022/06/09 07:40:18;;;;;;;;;;;;;;;;;;5033585;28;19953;-78
2022/06/09 07:42:45;;;;;;;;;;;;;;;;;;5033980;28;20011;-78
2022/06/09 07:45:13;;;;;;;;;;;;;;;;;;5035512;28;19983;-78
2022/06/09 07:47:39;;;;;;;;;;;;;;;;;;5036119;28;19952;-77
2022/06/09 07:50:07;;;;;;;;;;;;;;;;;;5034856;28;20016;-78
2022/06/09 07:52:33;;;;;;;;;;;;;;;;;;5035087;28;20016;-78
2022/06/09 07:55:00;;;;;;;;;;;;;;;;;;5035419;28;19921;-78
2022/06/09 07:57:26;;;;;;;;;;;;;;;;;;5037211;28;19921;-78
2022/06/09 07:59:53;;;;;;;;;;;;;;;;;;5034731;28;20019;-78
2022/06/09 08:02:21;;;;;;;;;;;;;;;;;;5034013;28;19944;-78
2022/06/09 08:04:48;;;;;;;;;;;;;;;;;;5034157;28;19957;-77
2022/06/09 08:07:14;;;;;;;;;;;;;;;;;;5033896;28;19968;-78
2022/06/09 08:09:40;;;;;;;;;;;;;;;;;;5033607;28;19979;-77
2022/06/09 08:12:07;;;;;;;;;;;;;;;;;;5032922;28;20363;-77
2022/06/09 08:14:34;;;;;;;;;;;;;;;;;;5033883;28;19952;-77
2022/06/09 08:17:00;;;;;;;;;;;;;;;;;;5032973;28;20000;-79
2022/06/09 08:19:28;;;;;;;;;;;;;;;;;;5032981;28;19921;-79
2022/06/09 08:21:54;;;;;;;;;;;;;;;;;;5033400;28;20351;-77
2022/06/09 08:24:21;;;;;;;;;;;;;;;;;;5033222;28;20008;-77
2022/06/09 08:26:48;;;;;;;;;;;;;;;;;;5033200;28;20474;-78
2022/06/09 08:29:15;;;;;;;;;;;;;;;;;;5033660;28;20279;-79
2022/06/09 08:31:43;;;;;;;;;;;;;;;;;;5035423;28;19954;-78
2022/06/09 08:34:11;;;;;;;;;;;;;;;;;;5034955;28;19921;-78
2022/06/09 08:36:39;;;;;;;;;;;;;;;;;;5035256;28;19921;-79
2022/06/09 08:39:05;;;;;;;;;;;;;;;;;;5034618;28;19922;-77
2022/06/09 08:41:35;;;;;;;;;;;;;;;;;;5033073;28;19968;-78
2022/06/09 08:44:08;;;;;;;;;;;;;;;;;;5033166;28;19967;-78
2022/06/09 08:46:41;;;;;;;;;;;;;;;;;;5032807;28;19924;-79
2022/06/09 08:49:20;;;;;;;;;;;;;;;;;;5032745;28;19975;-78
2022/06/09 08:51:49;;;;;;;;;;;;;;;;;;5032288;28;20566;-78
2022/06/09 08:54:18;;;;;;;;;;;;;;;;;;5034385;28;19971;-78
2022/06/09 08:56:45;;;;;;;;;;;;;;;;;;5033595;28;19921;-78
2022/06/09 08:59:14;;;;;;;;;;;;;;;;;;5022391;28;20637;-78
2022/06/09 09:01:42;;;;;;;;;;;;;;;;;;5013360;28;19971;-78
2022/06/09 09:04:15;;;;;;;;;;;;;;;;;;5014036;28;19921;-78
2022/06/09 09:06:44;;;;;;;;;;;;;;;;;;5014122;28;19945;-78
2022/06/09 09:09:16;;;;;;;;;;;;;;;;;;5013584;28;20336;-80
2022/06/09 09:11:49;;;;;;;;;;;;;;;;;;5013782;28;20004;-78
2022/06/09 09:14:20;;;;;;;;;;;;;;;;;;5019592;28;19952;-76
2022/06/09 09:16:50;;;;;;;;;;;;;;;;;;5014996;28;19967;-78
2022/06/09 09:19:21;;;;;;;;;;;;;;;;;;5012784;28;19960;-78
2022/06/09 09:22:05;;;;;;;;;;;;;;;;;;5012029;28;19949;-78
2022/06/09 09:24:39;;;;;;;;;;;;;;;;;;5002938;28;20020;-78
2022/06/09 09:27:15;;;;;;;;;;;;;;;;;;5013355;28;20016;-78
2022/06/09 09:29:46;;;;;;;;;;;;;;;;;;5015730;28;20468;-79
2022/06/09 09:32:14;;;;;;;;;;;;;;;;;;5015893;28;19953;-78
2022/06/09 09:34:41;;;;;;;;;;;;;;;;;;5015141;28;20044;-78
2022/06/09 09:37:16;;;;;;;;;;;;;;;;;;5015343;28;20016;-78
2022/06/09 09:39:45;;;;;;;;;;;;;;;;;;5014982;28;19922;-78
2022/06/09 09:42:14;;;;;;;;;;;;;;;;;;5013697;28;19971;-78
2022/06/09 09:44:40;;;;;;;;;;;;;;;;;;5014540;28;20043;-78
2022/06/09 09:47:07;;;;;;;;;;;;;;;;;;5023331;28;20358;-78
2022/06/09 09:49:35;;;;;;;;;;;;;;;;;;5045261;28;20016;-79
2022/06/09 09:52:06;;;;;;;;;;;;;;;;;;5041421;28;19921;-78
2022/06/09 09:54:37;;;;;;;;;;;;;;;;;;5039457;28;20406;-79
2022/06/09 09:57:13;;;;;;;;;;;;;;;;;;5038698;28;19983;-79
2022/06/09 09:59:45;;;;;;;;;;;;;;;;;;5038437;28;19976;-77
2022/06/09 10:10:56;;;;;;;;;;;;;;;;;;5036293;28;19944;-78
2022/06/09 10:13:30;;;;;;;;;;;;;;;;;;5037705;28;19936;-78
2022/06/09 10:15:56;;;;;;;;;;;;;;;;;;5036902;28;20020;-78
2022/06/09 10:18:24;;;;;;;;;;;;;;;;;;5035084;28;19927;-78
2022/06/09 10:21:02;;;;;;;;;;;;;;;;;;5036133;28;19921;-78
2022/06/09 10:23:34;;;;;;;;;;;;;;;;;;5036782;28;20376;-78
2022/06/09 10:26:02;;;;;;;;;;;;;;;;;;5036331;28;19976;-78
2022/06/09 10:28:33;;;;;;;;;;;;;;;;;;5036057;28;20415;-78
2022/06/09 10:31:02;;;;;;;;;;;;;;;;;;5035035;28;19921;-78
2022/06/09 10:33:32;;;;;;;;;;;;;;;;;;5035833;28;19952;-77
2022/06/09 10:36:00;;;;;;;;;;;;;;;;;;5036705;28;19960;-78
2022/06/09 10:38:33;;;;;;;;;;;;;;;;;;5037370;28;19960;-80
2022/06/09 10:41:01;;;;;;;;;;;;;;;;;;5036912;28;20298;-76
2022/06/09 10:43:31;;;;;;;;;;;;;;;;;;5035790;28;19920;-81
2022/06/09 10:46:00;;;;;;;;;;;;;;;;;;5037559;28;20533;-78
2022/06/09 10:56:58;;;;;;;;;;;;;;;;;;5033396;28;20408;-78
2022/06/09 10:59:27;;;;;;;;;;;;;;;;;;5033752;28;19947;-78
2022/06/09 11:01:56;;;;;;;;;;;;;;;;;;5033927;28;20149;-78
2022/06/09 11:04:23;;;;;;;;;;;;;;;;;;5034122;28;20016;-78
2022/06/09 11:06:57;;;;;;;;;;;;;;;;;;5034177;28;19985;-78
2022/06/09 11:09:27;;;;;;;;;;;;;;;;;;5033828;28;20016;-77
2022/06/09 11:12:00;;;;;;;;;;;;;;;;;;5034305;28;20007;-77
2022/06/09 11:14:48;;;;;;;;;;;;;;;;;;5034229;28;19982;-77
2022/06/09 11:17:26;;;;;;;;;;;;;;;;;;5030273;28;20003;-78
2022/06/09 11:19:58;;;;;;;;;;;;;;;;;;5033130;28;20376;-78
2022/06/09 11:22:30;;;;;;;;;;;;;;;;;;5037176;28;19925;-78
2022/06/09 11:25:01;;;;;;;;;;;;;;;;;;5035489;28;19951;-81
2022/06/09 11:27:33;;;;;;;;;;;;;;;;;;5034712;28;19931;-77
2022/06/09 11:30:06;;;;;;;;;;;;;;;;;;5033809;28;19967;-78
2022/06/09 11:32:38;;;;;;;;;;;;;;;;;;5034285;28;20312;-78
2022/06/09 11:35:25;;;;;;;;;;;;;;;;;;5034005;28;19928;-78
2022/06/09 11:38:04;;;;;;;;;;;;;;;;;;5011535;28;19928;-78
2022/06/09 11:40:33;;;;;;;;;;;;;;;;;;5017110;28;19921;-78
2022/06/09 11:43:05;;;;;;;;;;;;;;;;;;5035362;28;19921;-78
2022/06/09 11:45:33;;;;;;;;;;;;;;;;;;5036132;28;20004;-78
2022/06/09 11:48:03;;;;;;;;;;;;;;;;;;5034660;28;20020;-78
2022/06/09 11:50:32;;;;;;;;;;;;;;;;;;5032546;28;20035;-78
2022/06/09 11:53:00;;;;;;;;;;;;;;;;;;5034276;28;20491;-78
2022/06/09 11:55:57;;;;;;;;;;;;;;;;;;5035809;28;19983;-78
2022/06/09 11:58:30;;;;;;;;;;;;;;;;;;5034945;28;19925;-78
2022/06/09 12:03:59;;;;;;;;;;;;;;;;;;5054320;28;19920;-78
2022/06/09 12:06:35;;;;;;;;;;;;;;;;;;5036327;28;20119;-78
2022/06/09 12:09:04;;;;;;;;;;;;;;;;;;5051280;28;20023;-77
2022/06/09 12:11:45;;;;;;;;;;;;;;;;;;5047245;28;19968;-78
2022/06/09 12:14:17;;;;;;;;;;;;;;;;;;5032478;28;19921;-77
2022/06/09 12:16:55;;;;;;;;;;;;;;;;;;5035138;28;20011;-77
2022/06/09 12:19:31;;;;;;;;;;;;;;;;;;5030746;28;20335;-77
2022/06/09 12:22:18;;;;;;;;;;;;;;;;;;5029293;28;19925;-77
2022/06/09 12:25:02;;;;;;;;;;;;;;;;;;5032306;28;19943;-77
2022/06/09 12:27:42;;;;;;;;;;;;;;;;;;5033015;28;19921;-78
2022/06/09 12:30:24;;;;;;;;;;;;;;;;;;5035617;28;19928;-77
2022/06/09 12:32:51;;;;;;;;;;;;;;;;;;5038999;28;19936;-77
2022/06/09 12:35:29;;;;;;;;;;;;;;;;;;5034029;28;19921;-77
2022/06/09 12:38:02;;;;;;;;;;;;;;;;;;5041027;28;19960;-78
2022/06/09 12:40:33;;;;;;;;;;;;;;;;;;5041519;28;19920;-78
2022/06/09 12:43:01;;;;;;;;;;;;;;;;;;5040345;28;19921;-77
2022/06/09 12:45:29;;;;;;;;;;;;;;;;;;5040351;28;20321;-78
2022/06/09 12:47:57;;;;;;;;;;;;;;;;;;5036603;28;20115;-79
2022/06/09 12:50:28;;;;;;;;;;;;;;;;;;5036833;28;19944;-78
2022/06/09 12:52:55;;;;;;;;;;;;;;;;;;5049143;28;20019;-78
2022/06/09 12:55:25;;;;;;;;;;;;;;;;;;5042035;28;19928;-81
2022/06/09 12:57:53;;;;;;;;;;;;;;;;;;5042639;28;19922;-79
2022/06/09 13:00:21;;;;;;;;;;;;;;;;;;5038668;28;19952;-78
2022/06/09 13:02:48;;;;;;;;;;;;;;;;;;5037782;28;19951;-78
2022/06/09 13:05:17;;;;;;;;;;;;;;;;;;5040379;28;19921;-80
2022/06/09 13:07:48;;;;;;;;;;;;;;;;;;5041753;28;19921;-79
2022/06/09 13:10:18;;;;;;;;;;;;;;;;;;5042391;28;19928;-78
2022/06/09 13:12:51;;;;;;;;;;;;;;;;;;5041418;28;19960;-77
2022/06/09 13:15:21;;;;;;;;;;;;;;;;;;5035549;28;19928;-78
2022/06/09 13:17:49;;;;;;;;;;;;;;;;;;5037439;28;19971;-79
2022/06/09 13:20:17;;;;;;;;;;;;;;;;;;5040774;28;19921;-78
2022/06/09 13:22:44;;;;;;;;;;;;;;;;;;5040985;28;20375;-78
2022/06/09 13:25:13;;;;;;;;;;;;;;;;;;5041371;28;19924;-79
2022/06/09 13:27:41;;;;;;;;;;;;;;;;;;5040535;28;19960;-80
2022/06/09 13:30:27;;;;;;;;;;;;;;;;;;5037984;28;19921;-78
2022/06/09 13:32:54;;;;;;;;;;;;;;;;;;5039238;28;19976;-78
2022/06/09 13:35:35;;;;;;;;;;;;;;;;;;5039011;28;19960;-78
2022/06/09 13:38:02;;;;;;;;;;;;;;;;;;5040899;28;19925;-79
2022/06/09 13:40:40;;;;;;;;;;;;;;;;;;5041913;28;20001;-78
2022/06/09 13:43:14;;;;;;;;;;;;;;;;;;5041850;28;19928;-79
2022/06/09 13:45:49;;;;;;;;;;;;;;;;;;5042349;28;20012;-78
2022/06/09 13:48:17;;;;;;;;;;;;;;;;;;5040535;28;19921;-78
2022/06/09 13:50:46;;;;;;;;;;;;;;;;;;5040518;28;19957;-78
2022/06/09 13:53:30;;;;;;;;;;;;;;;;;;5040944;28;19921;-78
2022/06/09 13:55:57;;;;;;;;;;;;;;;;;;5039294;28;19944;-79
2022/06/09 13:58:24;;;;;;;;;;;;;;;;;;5043102;28;20012;-77
2022/06/09 14:00:54;;;;;;;;;;;;;;;;;;5045025;28;19921;-78
2022/06/09 14:03:23;;;;;;;;;;;;;;;;;;5048253;28;19921;-79
2022/06/09 14:05:51;;;;;;;;;;;;;;;;;;5048630;28;19928;-77
2022/06/09 14:08:18;;;;;;;;;;;;;;;;;;5043615;28;19971;-79
2022/06/09 14:10:44;;;;;;;;;;;;;;;;;;5039837;28;19960;-78
2022/06/09 14:13:11;;;;;;;;;;;;;;;;;;5038930;28;19964;-79
2022/06/09 14:15:39;;;;;;;;;;;;;;;;;;5033188;28;19979;-78
2022/06/09 14:18:08;;;;;;;;;;;;;;;;;;5033565;28;19972;-78
2022/06/09 14:20:35;;;;;;;;;;;;;;;;;;5032772;28;19921;-78
2022/06/09 14:23:02;;;;;;;;;;;;;;;;;;5035809;28;19925;-80
2022/06/09 14:25:30;;;;;;;;;;;;;;;;;;5035985;28;20019;-80
2022/06/09 14:27:57;;;;;;;;;;;;;;;;;;5038656;28;20023;-78
2022/06/09 14:30:24;;;;;;;;;;;;;;;;;;5036840;28;19921;-78
2022/06/09 14:32:51;;;;;;;;;;;;;;;;;;5035129;28;19956;-79
2022/06/09 14:35:19;;;;;;;;;;;;;;;;;;5036804;28;19993;-79
2022/06/09 14:37:46;;;;;;;;;;;;;;;;;;5040966;28;19944;-81
2022/06/09 14:40:21;;;;;;;;;;;;;;;;;;5037344;28;19998;-80
2022/06/09 14:42:47;;;;;;;;;;;;;;;;;;5038463;28;19921;-79
2022/06/09 14:45:14;;;;;;;;;;;;;;;;;;5039607;28;19996;-80
2022/06/09 14:47:40;;;;;;;;;;;;;;;;;;5039146;28;20015;-79
2022/06/09 14:50:07;;;;;;;;;;;;;;;;;;5038148;28;19963;-79
2022/06/09 14:52:35;;;;;;;;;;;;;;;;;;5037958;28;19999;-79
2022/06/09 14:55:01;;;;;;;;;;;;;;;;;;5037472;28;19976;-80
2022/06/09 14:57:28;;;;;;;;;;;;;;;;;;5038490;28;19960;-80
2022/06/09 14:59:54;;;;;;;;;;;;;;;;;;5019726;28;19976;-79
2022/06/09 15:02:21;;;;;;;;;;;;;;;;;;5016191;28;20514;-80
2022/06/09 15:04:48;;;;;;;;;;;;;;;;;;5018572;28;19972;-80
2022/06/09 15:07:16;;;;;;;;;;;;;;;;;;5017782;28;19984;-79
2022/06/09 15:09:44;;;;;;;;;;;;;;;;;;5017301;28;19985;-80
2022/06/09 15:12:11;;;;;;;;;;;;;;;;;;5017227;28;19921;-79
2022/06/09 15:14:38;;;;;;;;;;;;;;;;;;5017233;28;19932;-80
2022/06/09 15:17:05;;;;;;;;;;;;;;;;;;5017291;28;20380;-79
2022/06/09 15:19:32;;;;;;;;;;;;;;;;;;5017090;28;19929;-80
2022/06/09 15:21:58;;;;;;;;;;;;;;;;;;5017453;28;19977;-79
2022/06/09 15:24:25;;;;;;;;;;;;;;;;;;5019193;28;19972;-78
2022/06/09 15:26:53;;;;;;;;;;;;;;;;;;5024934;28;19921;-79
2022/06/09 15:29:20;;;;;;;;;;;;;;;;;;5035400;28;19984;-80
2022/06/09 15:31:47;;;;;;;;;;;;;;;;;;5036613;28;20035;-79
2022/06/09 15:34:13;;;;;;;;;;;;;;;;;;5036316;28;19932;-79
2022/06/09 15:36:40;;;;;;;;;;;;;;;;;;5035455;28;20315;-80
2022/06/09 15:39:07;;;;;;;;;;;;;;;;;;5035379;28;19920;-80
2022/06/09 15:41:34;;;;;;;;;;;;;;;;;;5035423;28;19925;-80
2022/06/09 15:44:02;;;;;;;;;;;;;;;;;;5036209;28;19925;-79
2022/06/09 15:46:28;;;;;;;;;;;;;;;;;;5036782;28;19960;-79
2022/06/09 15:48:55;;;;;;;;;;;;;;;;;;5035935;28;19921;-80
2022/06/09 15:51:23;;;;;;;;;;;;;;;;;;5034467;28;19932;-80
2022/06/09 15:53:50;;;;;;;;;;;;;;;;;;5036258;28;19925;-78
2022/06/09 15:56:16;;;;;;;;;;;;;;;;;;5034971;28;19921;-78
2022/06/09 15:58:42;;;;;;;;;;;;;;;;;;5034657;28;19925;-78
2022/06/09 16:01:13;;;;;;;;;;;;;;;;;;5035051;28;20011;-79
2022/06/09 16:03:40;;;;;;;;;;;;;;;;;;5037790;28;19960;-79
2022/06/09 16:06:10;;;;;;;;;;;;;;;;;;5034563;28;20019;-79
2022/06/09 16:08:37;;;;;;;;;;;;;;;;;;5036615;28;19921;-78
2022/06/09 16:11:03;;;;;;;;;;;;;;;;;;5036565;28;20015;-79
2022/06/09 16:13:30;;;;;;;;;;;;;;;;;;5039228;28;19921;-79
2022/06/09 16:15:56;;;;;;;;;;;;;;;;;;5035741;28;19927;-79
2022/06/09 16:18:24;;;;;;;;;;;;;;;;;;5036012;28;20394;-79
2022/06/09 16:20:51;;;;;;;;;;;;;;;;;;5035035;28;19927;-79
2022/06/09 16:23:18;;;;;;;;;;;;;;;;;;5033246;28;20555;-79
2022/06/09 16:25:46;;;;;;;;;;;;;;;;;;5034324;28;20722;-79
2022/06/09 16:28:13;;;;;;;;;;;;;;;;;;5034722;28;19975;-79
2022/06/09 16:30:39;;;;;;;;;;;;;;;;;;5036076;28;20015;-79
2022/06/09 16:33:06;;;;;;;;;;;;;;;;;;5037859;28;20046;-79
2022/06/09 16:35:34;;;;;;;;;;;;;;;;;;5037692;28;20032;-78
2022/06/09 16:38:01;;;;;;;;;;;;;;;;;;5036064;28;20332;-79
2022/06/09 16:40:30;;;;;;;;;;;;;;;;;;5034422;28;19921;-79
2022/06/09 16:42:56;;;;;;;;;;;;;;;;;;5035285;28;19921;-78
2022/06/09 16:45:23;;;;;;;;;;;;;;;;;;5032544;28;20315;-78
2022/06/09 16:47:50;;;;;;;;;;;;;;;;;;5034167;28;20265;-80
2022/06/09 16:50:17;;;;;;;;;;;;;;;;;;5035131;28;19948;-79
2022/06/09 16:52:45;;;;;;;;;;;;;;;;;;5036038;28;19928;-78
2022/06/09 16:55:13;;;;;;;;;;;;;;;;;;5035909;28;20019;-77
2022/06/09 16:57:40;;;;;;;;;;;;;;;;;;5038423;28;19921;-77
2022/06/09 17:00:08;;;;;;;;;;;;;;;;;;5019729;28;19921;-76
2022/06/09 17:02:35;;;;;;;;;;;;;;;;;;5018505;28;19967;-77
2022/06/09 17:05:01;;;;;;;;;;;;;;;;;;5018101;28;19921;-77
2022/06/09 17:07:27;;;;;;;;;;;;;;;;;;5019630;28;19925;-79
2022/06/09 17:09:55;;;;;;;;;;;;;;;;;;5018660;28;19921;-79
2022/06/09 17:12:22;;;;;;;;;;;;;;;;;;5017433;28;20351;-80
2022/06/09 17:14:49;;;;;;;;;;;;;;;;;;5016743;28;19928;-79
2022/06/09 17:17:15;;;;;;;;;;;;;;;;;;5017080;28;20032;-78
2022/06/09 17:19:42;;;;;;;;;;;;;;;;;;5017105;28;19968;-79
2022/06/09 17:22:08;;;;;;;;;;;;;;;;;;5019823;28;20284;-79
2022/06/09 17:24:36;;;;;;;;;;;;;;;;;;5025530;28;19954;-79
2022/06/09 17:27:05;;;;;;;;;;;;;;;;;;5029740;28;19921;-77